sensor_id;sensor_type;location;lat;lon;timestamp;temperature;humidity
35960;DHT22;22043;50.970;7.192;2022-11-20T00:01:41;6.10;99.90
35960;DHT22;22043;50.970;7.192;2022-11-20T00:04:08;6.20;99.90
35960;DHT22;22043;50.970;7.192;2022-11-20T00:06:34;6.20;99.90
35960;DHT22;22043;50.970;7.192;2022-11-20T00:09:00;6.10;99.90
35960;DHT22;22043;50.970;7.192;2022-11-20T00:11:27;6.10;99.90
35960;DHT22;22043;50.970;7.192;2022-11-20T00:13:56;6.10;99.90
35960;DHT22;22043;50.970;7.192;2022-11-20T00:16:25;6.10;99.90
35960;DHT22;22043;50.970;7.192;2022-11-20T00:18:51;6.10;99.90
35960;DHT22;22043;50.970;7.192;2022-11-20T00:21:25;6.10;99.90
35960;DHT22;22043;50.970;7.192;2022-11-20T00:23:53;6.10;99.90
35960;DHT22;22043;50.970;7.192;2022-11-20T00:26:20;6.10;99.90
35960;DHT22;22043;50.970;7.192;2022-11-20T00:29:00;6.20;99.90
35960;DHT22;22043;50.970;7.192;2022-11-20T00:31:26;6.20;99.90
35960;DHT22;22043;50.970;7.192;2022-11-20T00:33:53;6.10;99.90
35960;DHT22;22043;50.970;7.192;2022-11-20T00:36:21;6.10;99.90
35960;DHT22;22043;50.970;7.192;2022-11-20T00:38:47;6.10;99.90
35960;DHT22;22043;50.970;7.192;2022-11-20T00:41:16;6.00;99.90
35960;DHT22;22043;50.970;7.192;2022-11-20T00:43:42;6.00;99.90
35960;DHT22;22043;50.970;7.192;2022-11-20T00:46:10;6.00;99.90
35960;DHT22;22043;50.970;7.192;2022-11-20T00:48:37;6.10;99.90
35960;DHT22;22043;50.970;7.192;2022-11-20T00:51:03;6.10;99.90
35960;DHT22;22043;50.970;7.192;2022-11-20T00:53:28;6.20;99.90
35960;DHT22;22043;50.970;7.192;2022-11-20T00:56:03;6.10;99.90
35960;DHT22;22043;50.970;7.192;2022-11-20T00:58:31;6.10;99.90
35960;DHT22;22043;50.970;7.192;2022-11-20T01:03:39;6.00;99.90
35960;DHT22;22043;50.970;7.192;2022-11-20T01:06:11;6.00;99.90
35960;DHT22;22043;50.970;7.192;2022-11-20T01:08:37;6.00;99.90
35960;DHT22;22043;50.970;7.192;2022-11-20T01:11:12;6.00;99.90
35960;DHT22;22043;50.970;7.192;2022-11-20T01:13:39;6.00;99.90
35960;DHT22;22043;50.970;7.192;2022-11-20T01:16:13;6.00;99.90
35960;DHT22;22043;50.970;7.192;2022-11-20T01:18:41;6.10;99.90
35960;DHT22;22043;50.970;7.192;2022-11-20T01:21:10;6.10;99.90
35960;DHT22;22043;50.970;7.192;2022-11-20T01:23:38;6.00;99.90
35960;DHT22;22043;50.970;7.192;2022-11-20T01:26:15;6.00;99.90
35960;DHT22;22043;50.970;7.192;2022-11-20T01:28:41;6.00;99.90
35960;DHT22;22043;50.970;7.192;2022-11-20T01:33:39;6.00;99.90
35960;DHT22;22043;50.970;7.192;2022-11-20T01:36:06;6.00;99.90
35960;DHT22;22043;50.970;7.192;2022-11-20T01:38:32;5.90;99.90
35960;DHT22;22043;50.970;7.192;2022-11-20T01:40:58;6.00;99.90
35960;DHT22;22043;50.970;7.192;2022-11-20T01:43:24;6.00;99.90
35960;DHT22;22043;50.970;7.192;2022-11-20T01:46:04;6.00;99.90
35960;DHT22;22043;50.970;7.192;2022-11-20T01:51:33;6.00;99.90
35960;DHT22;22043;50.970;7.192;2022-11-20T01:54:05;6.00;99.90
35960;DHT22;22043;50.970;7.192;2022-11-20T01:56:38;6.00;99.90
35960;DHT22;22043;50.970;7.192;2022-11-20T01:59:05;6.00;99.90
35960;DHT22;22043;50.970;7.192;2022-11-20T02:01:33;6.00;99.90
35960;DHT22;22043;50.970;7.192;2022-11-20T02:03:59;6.00;99.90
35960;DHT22;22043;50.970;7.192;2022-11-20T02:06:28;6.00;99.90
35960;DHT22;22043;50.970;7.192;2022-11-20T02:08:55;6.00;99.90
35960;DHT22;22043;50.970;7.192;2022-11-20T02:11:21;6.00;99.90
35960;DHT22;22043;50.970;7.192;2022-11-20T02:13:48;6.00;99.90
35960;DHT22;22043;50.970;7.192;2022-11-20T02:16:26;6.00;99.90
35960;DHT22;22043;50.970;7.192;2022-11-20T02:18:54;6.00;99.90
35960;DHT22;22043;50.970;7.192;2022-11-20T02:21:45;6.10;99.90
35960;DHT22;22043;50.970;7.192;2022-11-20T02:24:18;6.10;99.90
35960;DHT22;22043;50.970;7.192;2022-11-20T02:26:51;6.10;99.90
35960;DHT22;22043;50.970;7.192;2022-11-20T02:29:23;6.10;99.90
35960;DHT22;22043;50.970;7.192;2022-11-20T02:31:50;6.10;99.90
35960;DHT22;22043;50.970;7.192;2022-11-20T02:34:16;6.10;99.90
35960;DHT22;22043;50.970;7.192;2022-11-20T02:36:42;6.00;99.90
35960;DHT22;22043;50.970;7.192;2022-11-20T02:39:09;6.00;99.90
35960;DHT22;22043;50.970;7.192;2022-11-20T02:41:38;6.00;99.90
35960;DHT22;22043;50.970;7.192;2022-11-20T02:44:04;6.00;99.90
35960;DHT22;22043;50.970;7.192;2022-11-20T02:46:31;6.00;99.90
35960;DHT22;22043;50.970;7.192;2022-11-20T02:48:56;6.00;99.90
35960;DHT22;22043;50.970;7.192;2022-11-20T02:51:22;6.00;99.90
35960;DHT22;22043;50.970;7.192;2022-11-20T02:53:48;6.00;99.90
35960;DHT22;22043;50.970;7.192;2022-11-20T02:56:14;6.10;99.90
35960;DHT22;22043;50.970;7.192;2022-11-20T02:58:40;6.00;99.90
35960;DHT22;22043;50.970;7.192;2022-11-20T03:01:06;6.00;99.90
35960;DHT22;22043;50.970;7.192;2022-11-20T03:03:32;6.00;99.90
35960;DHT22;22043;50.970;7.192;2022-11-20T03:05:59;6.00;99.90
35960;DHT22;22043;50.970;7.192;2022-11-20T03:08:24;6.00;99.90
35960;DHT22;22043;50.970;7.192;2022-11-20T03:10:50;6.00;99.90
35960;DHT22;22043;50.970;7.192;2022-11-20T03:13:16;5.90;99.90
35960;DHT22;22043;50.970;7.192;2022-11-20T03:15:41;6.00;99.90
35960;DHT22;22043;50.970;7.192;2022-11-20T03:18:07;6.00;99.90
35960;DHT22;22043;50.970;7.192;2022-11-20T03:20:33;6.00;99.90
35960;DHT22;22043;50.970;7.192;2022-11-20T03:22:59;6.00;99.90
35960;DHT22;22043;50.970;7.192;2022-11-20T03:25:25;6.00;99.90
35960;DHT22;22043;50.970;7.192;2022-11-20T03:27:51;5.90;99.90
35960;DHT22;22043;50.970;7.192;2022-11-20T03:30:16;5.90;99.90
35960;DHT22;22043;50.970;7.192;2022-11-20T03:32:42;5.90;99.90
35960;DHT22;22043;50.970;7.192;2022-11-20T03:35:08;5.90;99.90
35960;DHT22;22043;50.970;7.192;2022-11-20T03:37:34;5.90;99.90
35960;DHT22;22043;50.970;7.192;2022-11-20T03:39:59;5.90;99.90
35960;DHT22;22043;50.970;7.192;2022-11-20T03:42:25;6.00;99.90
35960;DHT22;22043;50.970;7.192;2022-11-20T03:45:09;6.00;99.90
35960;DHT22;22043;50.970;7.192;2022-11-20T03:47:35;6.00;99.90
35960;DHT22;22043;50.970;7.192;2022-11-20T03:50:01;6.10;99.90
35960;DHT22;22043;50.970;7.192;2022-11-20T03:52:26;6.10;99.90
35960;DHT22;22043;50.970;7.192;2022-11-20T03:54:52;6.10;99.90
35960;DHT22;22043;50.970;7.192;2022-11-20T03:57:18;6.10;99.90
35960;DHT22;22043;50.970;7.192;2022-11-20T03:59:43;6.10;99.90
35960;DHT22;22043;50.970;7.192;2022-11-20T04:02:09;6.10;99.90
35960;DHT22;22043;50.970;7.192;2022-11-20T04:04:34;6.10;99.90
35960;DHT22;22043;50.970;7.192;2022-11-20T04:07:00;6.10;99.90
35960;DHT22;22043;50.970;7.192;2022-11-20T04:09:26;6.10;99.90
35960;DHT22;22043;50.970;7.192;2022-11-20T04:11:51;6.10;99.90
35960;DHT22;22043;50.970;7.192;2022-11-20T04:14:17;6.10;99.90
35960;DHT22;22043;50.970;7.192;2022-11-20T04:16:43;6.10;99.90
35960;DHT22;22043;50.970;7.192;2022-11-20T04:19:11;6.20;99.90
35960;DHT22;22043;50.970;7.192;2022-11-20T04:21:37;6.10;99.90
35960;DHT22;22043;50.970;7.192;2022-11-20T04:24:03;6.10;99.90
35960;DHT22;22043;50.970;7.192;2022-11-20T04:26:29;6.10;99.90
35960;DHT22;22043;50.970;7.192;2022-11-20T04:28:56;6.10;99.90
35960;DHT22;22043;50.970;7.192;2022-11-20T04:31:24;6.10;99.90
35960;DHT22;22043;50.970;7.192;2022-11-20T04:33:51;6.20;99.90
35960;DHT22;22043;50.970;7.192;2022-11-20T04:36:22;6.20;99.90
35960;DHT22;22043;50.970;7.192;2022-11-20T04:38:58;6.10;99.90
35960;DHT22;22043;50.970;7.192;2022-11-20T04:41:30;6.20;99.90
35960;DHT22;22043;50.970;7.192;2022-11-20T04:43:58;6.10;99.90
35960;DHT22;22043;50.970;7.192;2022-11-20T04:46:28;6.10;99.90
35960;DHT22;22043;50.970;7.192;2022-11-20T04:48:54;6.10;99.90
35960;DHT22;22043;50.970;7.192;2022-11-20T04:51:20;6.10;99.90
35960;DHT22;22043;50.970;7.192;2022-11-20T04:53:46;6.00;99.90
35960;DHT22;22043;50.970;7.192;2022-11-20T04:56:13;6.00;99.90
35960;DHT22;22043;50.970;7.192;2022-11-20T04:58:39;5.90;99.90
35960;DHT22;22043;50.970;7.192;2022-11-20T05:03:31;5.90;99.90
35960;DHT22;22043;50.970;7.192;2022-11-20T05:06:02;5.90;99.90
35960;DHT22;22043;50.970;7.192;2022-11-20T05:08:29;5.90;99.90
35960;DHT22;22043;50.970;7.192;2022-11-20T05:11:02;6.00;99.90
35960;DHT22;22043;50.970;7.192;2022-11-20T05:13:29;6.00;99.90
35960;DHT22;22043;50.970;7.192;2022-11-20T05:15:54;6.00;99.90
35960;DHT22;22043;50.970;7.192;2022-11-20T05:18:20;6.00;99.90
35960;DHT22;22043;50.970;7.192;2022-11-20T05:20:46;6.00;99.90
35960;DHT22;22043;50.970;7.192;2022-11-20T05:23:11;6.10;99.90
35960;DHT22;22043;50.970;7.192;2022-11-20T05:25:37;6.00;99.90
35960;DHT22;22043;50.970;7.192;2022-11-20T05:28:02;6.00;99.90
35960;DHT22;22043;50.970;7.192;2022-11-20T05:30:28;6.00;99.90
35960;DHT22;22043;50.970;7.192;2022-11-20T05:32:54;6.10;99.90
35960;DHT22;22043;50.970;7.192;2022-11-20T05:35:19;6.10;99.90
35960;DHT22;22043;50.970;7.192;2022-11-20T05:37:45;6.10;99.90
35960;DHT22;22043;50.970;7.192;2022-11-20T05:40:11;6.10;99.90
35960;DHT22;22043;50.970;7.192;2022-11-20T05:42:37;6.10;99.90
35960;DHT22;22043;50.970;7.192;2022-11-20T05:45:04;6.10;99.90
35960;DHT22;22043;50.970;7.192;2022-11-20T05:47:34;6.10;99.90
35960;DHT22;22043;50.970;7.192;2022-11-20T05:50:01;6.20;99.90
35960;DHT22;22043;50.970;7.192;2022-11-20T05:52:30;6.10;99.90
35960;DHT22;22043;50.970;7.192;2022-11-20T05:54:56;6.10;99.90
35960;DHT22;22043;50.970;7.192;2022-11-20T05:57:22;6.10;99.90
35960;DHT22;22043;50.970;7.192;2022-11-20T05:59:47;6.10;99.90
35960;DHT22;22043;50.970;7.192;2022-11-20T06:02:13;6.10;99.90
35960;DHT22;22043;50.970;7.192;2022-11-20T06:04:38;6.10;99.90
35960;DHT22;22043;50.970;7.192;2022-11-20T06:07:07;6.10;99.90
35960;DHT22;22043;50.970;7.192;2022-11-20T06:09:33;6.20;99.90
35960;DHT22;22043;50.970;7.192;2022-11-20T06:11:59;6.10;99.90
35960;DHT22;22043;50.970;7.192;2022-11-20T06:14:25;6.10;99.90
35960;DHT22;22043;50.970;7.192;2022-11-20T06:16:50;6.10;99.90
35960;DHT22;22043;50.970;7.192;2022-11-20T06:19:16;6.10;99.90
35960;DHT22;22043;50.970;7.192;2022-11-20T06:21:42;6.00;99.90
35960;DHT22;22043;50.970;7.192;2022-11-20T06:24:09;6.10;99.90
35960;DHT22;22043;50.970;7.192;2022-11-20T06:26:35;6.10;99.90
35960;DHT22;22043;50.970;7.192;2022-11-20T06:29:01;6.10;99.90
35960;DHT22;22043;50.970;7.192;2022-11-20T06:31:26;6.10;99.90
35960;DHT22;22043;50.970;7.192;2022-11-20T06:33:52;6.10;99.90
35960;DHT22;22043;50.970;7.192;2022-11-20T06:36:20;6.10;99.90
35960;DHT22;22043;50.970;7.192;2022-11-20T06:38:46;6.10;99.90
35960;DHT22;22043;50.970;7.192;2022-11-20T06:41:15;6.10;99.90
35960;DHT22;22043;50.970;7.192;2022-11-20T06:43:41;6.10;99.90
35960;DHT22;22043;50.970;7.192;2022-11-20T06:46:09;6.10;99.90
35960;DHT22;22043;50.970;7.192;2022-11-20T06:48:35;6.10;99.90
35960;DHT22;22043;50.970;7.192;2022-11-20T06:51:03;6.10;99.90
35960;DHT22;22043;50.970;7.192;2022-11-20T06:53:29;6.10;99.90
35960;DHT22;22043;50.970;7.192;2022-11-20T06:55:56;6.00;99.90
35960;DHT22;22043;50.970;7.192;2022-11-20T06:58:22;6.00;99.90
35960;DHT22;22043;50.970;7.192;2022-11-20T07:00:48;6.00;99.90
35960;DHT22;22043;50.970;7.192;2022-11-20T07:03:14;6.00;99.90
35960;DHT22;22043;50.970;7.192;2022-11-20T07:05:40;5.90;99.90
35960;DHT22;22043;50.970;7.192;2022-11-20T07:08:06;5.90;99.90
35960;DHT22;22043;50.970;7.192;2022-11-20T07:10:32;5.90;99.90
35960;DHT22;22043;50.970;7.192;2022-11-20T07:12:57;5.90;99.90
35960;DHT22;22043;50.970;7.192;2022-11-20T07:15:24;5.80;99.90
35960;DHT22;22043;50.970;7.192;2022-11-20T07:17:51;5.90;99.90
35960;DHT22;22043;50.970;7.192;2022-11-20T07:20:16;5.90;99.90
35960;DHT22;22043;50.970;7.192;2022-11-20T07:22:42;5.90;99.90
35960;DHT22;22043;50.970;7.192;2022-11-20T07:25:09;5.90;99.90
35960;DHT22;22043;50.970;7.192;2022-11-20T07:27:35;6.00;99.90
35960;DHT22;22043;50.970;7.192;2022-11-20T07:30:02;6.00;99.90
35960;DHT22;22043;50.970;7.192;2022-11-20T07:32:28;6.00;99.90
35960;DHT22;22043;50.970;7.192;2022-11-20T07:34:53;6.00;99.90
35960;DHT22;22043;50.970;7.192;2022-11-20T07:37:19;6.00;99.90
35960;DHT22;22043;50.970;7.192;2022-11-20T07:39:44;6.00;99.90
35960;DHT22;22043;50.970;7.192;2022-11-20T07:42:10;6.00;99.90
35960;DHT22;22043;50.970;7.192;2022-11-20T07:44:37;6.00;99.90
35960;DHT22;22043;50.970;7.192;2022-11-20T07:47:03;6.00;99.90
35960;DHT22;22043;50.970;7.192;2022-11-20T07:49:29;5.90;99.90
35960;DHT22;22043;50.970;7.192;2022-11-20T07:51:55;5.90;99.90
35960;DHT22;22043;50.970;7.192;2022-11-20T07:54:21;5.90;99.90
35960;DHT22;22043;50.970;7.192;2022-11-20T07:56:48;5.90;99.90
35960;DHT22;22043;50.970;7.192;2022-11-20T07:59:13;5.80;99.90
35960;DHT22;22043;50.970;7.192;2022-11-20T08:01:40;5.90;99.90
35960;DHT22;22043;50.970;7.192;2022-11-20T08:04:05;5.80;99.90
35960;DHT22;22043;50.970;7.192;2022-11-20T08:06:31;5.80;99.90
35960;DHT22;22043;50.970;7.192;2022-11-20T08:08:57;5.90;99.90
35960;DHT22;22043;50.970;7.192;2022-11-20T08:11:23;5.80;99.90
35960;DHT22;22043;50.970;7.192;2022-11-20T08:14:07;5.80;99.90
35960;DHT22;22043;50.970;7.192;2022-11-20T08:16:40;5.90;99.90
35960;DHT22;22043;50.970;7.192;2022-11-20T08:19:06;5.90;99.90
35960;DHT22;22043;50.970;7.192;2022-11-20T08:21:32;5.90;99.90
35960;DHT22;22043;50.970;7.192;2022-11-20T08:23:58;6.00;99.90
35960;DHT22;22043;50.970;7.192;2022-11-20T08:26:25;6.00;99.90
35960;DHT22;22043;50.970;7.192;2022-11-20T08:28:54;6.00;99.90
35960;DHT22;22043;50.970;7.192;2022-11-20T08:31:21;6.10;99.90
35960;DHT22;22043;50.970;7.192;2022-11-20T08:33:46;6.10;99.90
35960;DHT22;22043;50.970;7.192;2022-11-20T08:36:12;6.20;99.90
35960;DHT22;22043;50.970;7.192;2022-11-20T08:38:38;6.20;99.90
35960;DHT22;22043;50.970;7.192;2022-11-20T08:41:04;6.30;99.90
35960;DHT22;22043;50.970;7.192;2022-11-20T08:43:50;6.30;99.90
35960;DHT22;22043;50.970;7.192;2022-11-20T08:46:16;6.40;99.90
35960;DHT22;22043;50.970;7.192;2022-11-20T08:48:42;6.40;99.90
35960;DHT22;22043;50.970;7.192;2022-11-20T08:51:08;6.40;99.90
35960;DHT22;22043;50.970;7.192;2022-11-20T08:53:33;6.50;99.90
35960;DHT22;22043;50.970;7.192;2022-11-20T08:55:59;6.50;99.90
35960;DHT22;22043;50.970;7.192;2022-11-20T08:58:25;6.60;99.90
35960;DHT22;22043;50.970;7.192;2022-11-20T09:00:51;6.60;99.90
35960;DHT22;22043;50.970;7.192;2022-11-20T09:03:17;6.70;99.90
35960;DHT22;22043;50.970;7.192;2022-11-20T09:05:43;6.70;99.90
35960;DHT22;22043;50.970;7.192;2022-11-20T09:08:09;6.70;99.90
35960;DHT22;22043;50.970;7.192;2022-11-20T09:10:34;6.70;99.90
35960;DHT22;22043;50.970;7.192;2022-11-20T09:13:00;6.70;99.90
35960;DHT22;22043;50.970;7.192;2022-11-20T09:15:27;6.70;99.90
35960;DHT22;22043;50.970;7.192;2022-11-20T09:17:57;6.70;99.90
35960;DHT22;22043;50.970;7.192;2022-11-20T09:20:23;6.80;99.90
35960;DHT22;22043;50.970;7.192;2022-11-20T09:22:49;6.80;99.90
35960;DHT22;22043;50.970;7.192;2022-11-20T09:25:15;6.80;99.90
35960;DHT22;22043;50.970;7.192;2022-11-20T09:27:41;6.70;99.90
35960;DHT22;22043;50.970;7.192;2022-11-20T09:30:09;6.70;99.90
35960;DHT22;22043;50.970;7.192;2022-11-20T09:32:35;6.80;99.90
35960;DHT22;22043;50.970;7.192;2022-11-20T09:35:01;6.80;99.90
35960;DHT22;22043;50.970;7.192;2022-11-20T09:37:27;6.80;99.90
35960;DHT22;22043;50.970;7.192;2022-11-20T09:39:53;6.80;99.90
35960;DHT22;22043;50.970;7.192;2022-11-20T09:45:09;6.90;99.90
35960;DHT22;22043;50.970;7.192;2022-11-20T09:47:41;6.90;99.90
35960;DHT22;22043;50.970;7.192;2022-11-20T09:52:49;7.00;99.90
35960;DHT22;22043;50.970;7.192;2022-11-20T09:55:18;7.00;99.90
35960;DHT22;22043;50.970;7.192;2022-11-20T09:57:46;7.00;99.90
35960;DHT22;22043;50.970;7.192;2022-11-20T10:00:14;7.00;99.90
35960;DHT22;22043;50.970;7.192;2022-11-20T10:02:55;7.00;99.90
35960;DHT22;22043;50.970;7.192;2022-11-20T10:08:19;7.00;99.90
35960;DHT22;22043;50.970;7.192;2022-11-20T10:16:19;7.00;99.90
35960;DHT22;22043;50.970;7.192;2022-11-20T10:21:51;7.10;99.90
35960;DHT22;22043;50.970;7.192;2022-11-20T10:30:18;7.20;99.90
35960;DHT22;22043;50.970;7.192;2022-11-20T10:33:11;7.30;99.90
35960;DHT22;22043;50.970;7.192;2022-11-20T10:35:45;7.30;99.90
35960;DHT22;22043;50.970;7.192;2022-11-20T10:38:26;7.30;99.90
35960;DHT22;22043;50.970;7.192;2022-11-20T10:41:00;7.30;99.90
35960;DHT22;22043;50.970;7.192;2022-11-20T10:43:46;7.30;99.90
35960;DHT22;22043;50.970;7.192;2022-11-20T10:46:18;7.30;99.90
35960;DHT22;22043;50.970;7.192;2022-11-20T10:48:45;7.30;99.90
35960;DHT22;22043;50.970;7.192;2022-11-20T10:54:17;7.30;99.90
35960;DHT22;22043;50.970;7.192;2022-11-20T10:56:51;7.30;99.90
35960;DHT22;22043;50.970;7.192;2022-11-20T10:59:37;7.30;99.90
35960;DHT22;22043;50.970;7.192;2022-11-20T11:02:21;7.40;99.90
35960;DHT22;22043;50.970;7.192;2022-11-20T11:04:52;7.50;99.90
35960;DHT22;22043;50.970;7.192;2022-11-20T11:07:25;7.40;99.90
35960;DHT22;22043;50.970;7.192;2022-11-20T11:09:54;7.40;99.90
35960;DHT22;22043;50.970;7.192;2022-11-20T11:12:22;7.40;99.90
35960;DHT22;22043;50.970;7.192;2022-11-20T11:14:51;7.40;99.90
35960;DHT22;22043;50.970;7.192;2022-11-20T11:20:16;7.50;99.90
35960;DHT22;22043;50.970;7.192;2022-11-20T11:22:56;7.40;99.90
35960;DHT22;22043;50.970;7.192;2022-11-20T11:25:27;7.40;99.90
35960;DHT22;22043;50.970;7.192;2022-11-20T11:27:54;7.50;99.90
35960;DHT22;22043;50.970;7.192;2022-11-20T11:30:22;7.40;99.90
35960;DHT22;22043;50.970;7.192;2022-11-20T11:32:48;7.50;99.90
35960;DHT22;22043;50.970;7.192;2022-11-20T11:35:26;7.50;99.90
35960;DHT22;22043;50.970;7.192;2022-11-20T11:37:54;7.40;99.90
35960;DHT22;22043;50.970;7.192;2022-11-20T11:40:21;7.40;99.90
35960;DHT22;22043;50.970;7.192;2022-11-20T11:42:53;7.40;99.90
35960;DHT22;22043;50.970;7.192;2022-11-20T11:45:20;7.30;99.90
35960;DHT22;22043;50.970;7.192;2022-11-20T11:47:50;7.40;99.90
35960;DHT22;22043;50.970;7.192;2022-11-20T11:50:26;7.30;99.90
35960;DHT22;22043;50.970;7.192;2022-11-20T11:53:05;7.40;99.90
35960;DHT22;22043;50.970;7.192;2022-11-20T11:55:38;7.40;99.90
35960;DHT22;22043;50.970;7.192;2022-11-20T11:58:14;7.50;99.90
35960;DHT22;22043;50.970;7.192;2022-11-20T12:00:59;7.50;99.90
35960;DHT22;22043;50.970;7.192;2022-11-20T12:03:37;7.50;99.90
35960;DHT22;22043;50.970;7.192;2022-11-20T12:06:12;7.60;99.90
35960;DHT22;22043;50.970;7.192;2022-11-20T12:14:03;7.50;99.90
35960;DHT22;22043;50.970;7.192;2022-11-20T12:16:35;7.50;99.90
35960;DHT22;22043;50.970;7.192;2022-11-20T12:19:01;7.50;99.90
35960;DHT22;22043;50.970;7.192;2022-11-20T12:24:39;7.50;99.90
35960;DHT22;22043;50.970;7.192;2022-11-20T12:30:10;7.30;99.90
35960;DHT22;22043;50.970;7.192;2022-11-20T12:41:28;7.30;99.90
35960;DHT22;22043;50.970;7.192;2022-11-20T12:50:06;7.30;99.90
35960;DHT22;22043;50.970;7.192;2022-11-20T12:58:12;7.40;99.90
35960;DHT22;22043;50.970;7.192;2022-11-20T13:00:52;7.40;99.90
35960;DHT22;22043;50.970;7.192;2022-11-20T13:03:42;7.40;99.90
35960;DHT22;22043;50.970;7.192;2022-11-20T13:06:13;7.50;99.90
35960;DHT22;22043;50.970;7.192;2022-11-20T13:08:41;7.50;99.90
35960;DHT22;22043;50.970;7.192;2022-11-20T13:14:27;7.40;99.90
35960;DHT22;22043;50.970;7.192;2022-11-20T13:17:04;7.40;99.90
35960;DHT22;22043;50.970;7.192;2022-11-20T13:19:31;7.30;99.90
35960;DHT22;22043;50.970;7.192;2022-11-20T13:21:57;7.50;99.90
35960;DHT22;22043;50.970;7.192;2022-11-20T13:24:28;7.50;99.90
35960;DHT22;22043;50.970;7.192;2022-11-20T13:29:37;7.60;99.90
35960;DHT22;22043;50.970;7.192;2022-11-20T13:32:16;7.60;99.90
35960;DHT22;22043;50.970;7.192;2022-11-20T13:34:57;7.60;99.90
35960;DHT22;22043;50.970;7.192;2022-11-20T13:37:34;7.60;99.90
35960;DHT22;22043;50.970;7.192;2022-11-20T13:45:31;7.60;99.90
35960;DHT22;22043;50.970;7.192;2022-11-20T13:47:58;7.60;99.90
35960;DHT22;22043;50.970;7.192;2022-11-20T13:50:40;7.60;99.90
35960;DHT22;22043;50.970;7.192;2022-11-20T13:53:26;7.60;99.90
35960;DHT22;22043;50.970;7.192;2022-11-20T13:56:01;7.70;99.90
35960;DHT22;22043;50.970;7.192;2022-11-20T14:01:15;7.70;99.90
35960;DHT22;22043;50.970;7.192;2022-11-20T14:03:42;7.70;99.90
35960;DHT22;22043;50.970;7.192;2022-11-20T14:06:27;7.70;99.90
35960;DHT22;22043;50.970;7.192;2022-11-20T14:08:54;7.70;99.90
35960;DHT22;22043;50.970;7.192;2022-11-20T14:11:22;7.80;99.90
35960;DHT22;22043;50.970;7.192;2022-11-20T14:13:57;7.80;99.90
35960;DHT22;22043;50.970;7.192;2022-11-20T14:16:24;7.70;99.90
35960;DHT22;22043;50.970;7.192;2022-11-20T14:18:50;7.70;99.90
35960;DHT22;22043;50.970;7.192;2022-11-20T14:21:24;7.70;99.90
35960;DHT22;22043;50.970;7.192;2022-11-20T14:23:54;7.60;99.90
35960;DHT22;22043;50.970;7.192;2022-11-20T14:26:20;7.70;99.90
35960;DHT22;22043;50.970;7.192;2022-11-20T14:28:49;7.70;99.90
35960;DHT22;22043;50.970;7.192;2022-11-20T14:31:23;7.60;99.90
35960;DHT22;22043;50.970;7.192;2022-11-20T14:33:51;7.60;99.90
35960;DHT22;22043;50.970;7.192;2022-11-20T14:36:19;7.70;99.90
35960;DHT22;22043;50.970;7.192;2022-11-20T14:38:45;7.60;99.90
35960;DHT22;22043;50.970;7.192;2022-11-20T14:41:23;7.60;99.90
35960;DHT22;22043;50.970;7.192;2022-11-20T14:43:56;7.60;99.90
35960;DHT22;22043;50.970;7.192;2022-11-20T14:46:23;7.60;99.90
35960;DHT22;22043;50.970;7.192;2022-11-20T14:48:55;7.60;99.90
35960;DHT22;22043;50.970;7.192;2022-11-20T14:51:35;7.60;99.90
35960;DHT22;22043;50.970;7.192;2022-11-20T14:54:19;7.60;99.90
35960;DHT22;22043;50.970;7.192;2022-11-20T14:56:58;7.60;99.90
35960;DHT22;22043;50.970;7.192;2022-11-20T14:59:25;7.60;99.90
35960;DHT22;22043;50.970;7.192;2022-11-20T15:01:57;7.50;99.90
35960;DHT22;22043;50.970;7.192;2022-11-20T15:04:23;7.60;99.90
35960;DHT22;22043;50.970;7.192;2022-11-20T15:06:51;7.60;99.90
35960;DHT22;22043;50.970;7.192;2022-11-20T15:09:17;7.60;99.90
35960;DHT22;22043;50.970;7.192;2022-11-20T15:11:53;7.60;99.90
35960;DHT22;22043;50.970;7.192;2022-11-20T15:14:19;7.60;99.90
35960;DHT22;22043;50.970;7.192;2022-11-20T15:16:45;7.60;99.90
35960;DHT22;22043;50.970;7.192;2022-11-20T15:19:17;7.60;99.90
35960;DHT22;22043;50.970;7.192;2022-11-20T15:21:43;7.50;99.90
35960;DHT22;22043;50.970;7.192;2022-11-20T15:24:09;7.60;99.90
35960;DHT22;22043;50.970;7.192;2022-11-20T15:26:36;7.60;99.90
35960;DHT22;22043;50.970;7.192;2022-11-20T15:29:03;7.60;99.90
35960;DHT22;22043;50.970;7.192;2022-11-20T15:31:29;7.60;99.90
35960;DHT22;22043;50.970;7.192;2022-11-20T15:33:54;7.60;99.90
35960;DHT22;22043;50.970;7.192;2022-11-20T15:36:20;7.60;99.90
35960;DHT22;22043;50.970;7.192;2022-11-20T15:38:46;7.60;99.90
35960;DHT22;22043;50.970;7.192;2022-11-20T15:41:11;7.60;99.90
35960;DHT22;22043;50.970;7.192;2022-11-20T15:43:37;7.50;99.90
35960;DHT22;22043;50.970;7.192;2022-11-20T15:46:08;7.50;99.90
35960;DHT22;22043;50.970;7.192;2022-11-20T15:48:38;7.50;99.90
35960;DHT22;22043;50.970;7.192;2022-11-20T15:51:26;7.50;99.90
35960;DHT22;22043;50.970;7.192;2022-11-20T15:53:52;7.50;99.90
35960;DHT22;22043;50.970;7.192;2022-11-20T15:56:19;7.40;99.90
35960;DHT22;22043;50.970;7.192;2022-11-20T15:58:45;7.40;99.90
35960;DHT22;22043;50.970;7.192;2022-11-20T16:01:16;7.40;99.90
35960;DHT22;22043;50.970;7.192;2022-11-20T16:03:42;7.40;99.90
35960;DHT22;22043;50.970;7.192;2022-11-20T16:06:08;7.40;99.90
35960;DHT22;22043;50.970;7.192;2022-11-20T16:08:34;7.40;99.90
35960;DHT22;22043;50.970;7.192;2022-11-20T16:11:00;7.40;99.90
35960;DHT22;22043;50.970;7.192;2022-11-20T16:13:25;7.50;99.90
35960;DHT22;22043;50.970;7.192;2022-11-20T16:16:22;7.50;99.90
35960;DHT22;22043;50.970;7.192;2022-11-20T16:18:48;7.50;99.90
35960;DHT22;22043;50.970;7.192;2022-11-20T16:21:14;7.50;99.90
35960;DHT22;22043;50.970;7.192;2022-11-20T16:23:40;7.50;99.90
35960;DHT22;22043;50.970;7.192;2022-11-20T16:26:10;7.40;99.90
35960;DHT22;22043;50.970;7.192;2022-11-20T16:28:36;7.40;99.90
35960;DHT22;22043;50.970;7.192;2022-11-20T16:31:13;7.40;99.90
35960;DHT22;22043;50.970;7.192;2022-11-20T16:33:40;7.40;99.90
35960;DHT22;22043;50.970;7.192;2022-11-20T16:36:13;7.30;99.90
35960;DHT22;22043;50.970;7.192;2022-11-20T16:38:39;7.30;99.90
35960;DHT22;22043;50.970;7.192;2022-11-20T16:41:05;7.30;99.90
35960;DHT22;22043;50.970;7.192;2022-11-20T16:43:31;7.30;99.90
35960;DHT22;22043;50.970;7.192;2022-11-20T16:45:57;7.30;99.90
35960;DHT22;22043;50.970;7.192;2022-11-20T16:48:22;7.30;99.90
35960;DHT22;22043;50.970;7.192;2022-11-20T16:50:51;7.30;99.90
35960;DHT22;22043;50.970;7.192;2022-11-20T16:53:20;7.30;99.90
35960;DHT22;22043;50.970;7.192;2022-11-20T16:55:46;7.30;99.90
35960;DHT22;22043;50.970;7.192;2022-11-20T16:58:13;7.30;99.90
35960;DHT22;22043;50.970;7.192;2022-11-20T17:00:40;7.30;99.90
35960;DHT22;22043;50.970;7.192;2022-11-20T17:03:06;7.20;99.90
35960;DHT22;22043;50.970;7.192;2022-11-20T17:05:33;7.30;99.90
35960;DHT22;22043;50.970;7.192;2022-11-20T17:07:59;7.30;99.90
35960;DHT22;22043;50.970;7.192;2022-11-20T17:10:25;7.30;99.90
35960;DHT22;22043;50.970;7.192;2022-11-20T17:12:51;7.30;99.90
35960;DHT22;22043;50.970;7.192;2022-11-20T17:15:16;7.30;99.90
35960;DHT22;22043;50.970;7.192;2022-11-20T17:17:42;7.30;99.90
35960;DHT22;22043;50.970;7.192;2022-11-20T17:20:09;7.30;99.90